Terminal Aerodrome Forecast
Issued by NWS

Home | Current Version | Previous Version | Graphics & Text | Print | Product List | Glossary On
Versions: 1 2 3 4 5 6 7 8 9 10 11 12 13 14 15 16 17 18 19 20 21 22
000
FTUS43 KBIS 172200 AAC
TAFMOT
TAF AMD
KMOT 172226Z 1722/1818 05012KT P6SM VCTS BKN080CB
      TEMPO 1722/1724 VRB15G25KT 2SM TSRA BKN050CB
     FM180100 22008KT P6SM BKN070
     FM181300 31013KT P6SM SCT080=

USA.gov is the U.S. government's official web portal to all federal, state and local government web resources and services.